Terminal Aerodrome Forecast
Issued by NWS Boston, MA

Home | Current Version | Previous Version | Text Only | Print | Product List | Glossary Off
Versions: 1 2 3 4 5 6 7 8 9 10 11 12 13 14 15 16 17 18 19 20 21 22 23 24 25 26 27 28 29 30 31 32 33 34 35 36 37 38 39 40 41 42
000 FTUS41 KBOX 301739 TAFBDL TAF KBDL 301739Z 3018/0124 02005KT P6SM OVC015 FM302100 03006KT P6SM BKN015 FM010300 03004KT P6SM OVC010 FM011200 01007KT 3SM BR OVC008 FM011600 02007KT P6SM OVC010=

USA.gov is the U.S. government's official web portal to all federal, state and local government web resources and services.